Newcastle, Canada
Current Conditions -  °F | °C
As of 9:13 PM on Sunday 21 Dec 2014 (Local Time) from CZBF Reporting Station
Light Snow Light Snow  
Wind Chill: 21°   Ceiling: 1300
Heat Index: 21°   Visibility: 12mi
Dew Point: 18°   Wind: 3mph
Humidity: 86%   Direction: NA
Pressure: 30.41"   Gusts: NA
Location:  46.98°N, 65.57°W
Report Text: CZBF 220113Z VRB03KT 12SM -SN OVC013 M06/M08 A3041 RMK SC8 SLP304
Loading
Personal Weather Stations






























Interactive Weather Map New forecast layout! Learn more

10-Day Weather Forecast

Advertisements
Track Severe Weather on mobile